sensor_id;sensor_type;location;lat;lon;timestamp;pressure;altitude;pressure_sealevel;temperature;humidity
50368;BME280;36281;34.132;-118.018;2023-03-14T00:01:22;100294.25;;;21.19;53.18
50368;BME280;36281;34.132;-118.018;2023-03-14T00:03:52;100297.19;;;21.07;54.41
50368;BME280;36281;34.132;-118.018;2023-03-14T00:06:23;100300.19;;;21.01;54.14
50368;BME280;36281;34.132;-118.018;2023-03-14T00:08:52;100291.28;;;21.05;54.27
50368;BME280;36281;34.132;-118.018;2023-03-14T00:11:22;100291.00;;;21.07;54.37
50368;BME280;36281;34.132;-118.018;2023-03-14T00:13:51;100290.72;;;21.03;54.09
50368;BME280;36281;34.132;-118.018;2023-03-14T00:16:21;100294.78;;;21.01;54.08
50368;BME280;36281;34.132;-118.018;2023-03-14T00:18:50;100286.44;;;20.97;53.93
50368;BME280;36281;34.132;-118.018;2023-03-14T00:21:19;100287.00;;;20.94;54.28
50368;BME280;36281;34.132;-118.018;2023-03-14T00:23:50;100296.13;;;20.88;54.61
50368;BME280;36281;34.132;-118.018;2023-03-14T00:26:20;100295.88;;;20.79;54.63
50368;BME280;36281;34.132;-118.018;2023-03-14T00:28:52;100301.25;;;20.74;54.84
50368;BME280;36281;34.132;-118.018;2023-03-14T00:31:21;100300.16;;;20.60;55.10
50368;BME280;36281;34.132;-118.018;2023-03-14T00:33:52;100302.56;;;20.51;55.58
50368;BME280;36281;34.132;-118.018;2023-03-14T00:36:21;100303.06;;;20.43;55.93
50368;BME280;36281;34.132;-118.018;2023-03-14T00:38:52;100290.66;;;20.32;56.27
50368;BME280;36281;34.132;-118.018;2023-03-14T00:41:22;100297.91;;;20.31;57.10
50368;BME280;36281;34.132;-118.018;2023-03-14T00:43:51;100297.91;;;20.26;57.39
50368;BME280;36281;34.132;-118.018;2023-03-14T00:46:21;100287.38;;;20.09;57.74
50368;BME280;36281;34.132;-118.018;2023-03-14T00:48:50;100298.16;;;20.09;58.49
50368;BME280;36281;34.132;-118.018;2023-03-14T00:51:19;100296.22;;;20.00;58.58
50368;BME280;36281;34.132;-118.018;2023-03-14T00:53:48;100307.97;;;19.88;58.89
50368;BME280;36281;34.132;-118.018;2023-03-14T00:56:18;100315.75;;;19.80;59.35
50368;BME280;36281;34.132;-118.018;2023-03-14T00:58:48;100313.03;;;19.70;60.03
50368;BME280;36281;34.132;-118.018;2023-03-14T01:01:18;100322.91;;;19.64;60.46
50368;BME280;36281;34.132;-118.018;2023-03-14T01:03:49;100328.75;;;19.56;60.58
50368;BME280;36281;34.132;-118.018;2023-03-14T01:06:21;100333.53;;;19.49;61.17
50368;BME280;36281;34.132;-118.018;2023-03-14T01:08:51;100339.69;;;19.44;61.53
50368;BME280;36281;34.132;-118.018;2023-03-14T01:11:23;100331.59;;;19.39;61.86
50368;BME280;36281;34.132;-118.018;2023-03-14T01:13:53;100334.28;;;19.39;62.19
50368;BME280;36281;34.132;-118.018;2023-03-14T01:16:23;100333.72;;;19.32;62.12
50368;BME280;36281;34.132;-118.018;2023-03-14T01:18:53;100335.81;;;19.25;62.37
50368;BME280;36281;34.132;-118.018;2023-03-14T01:21:24;100329.84;;;19.18;62.55
50368;BME280;36281;34.132;-118.018;2023-03-14T01:23:54;100337.06;;;19.12;62.79
50368;BME280;36281;34.132;-118.018;2023-03-14T01:26:28;100329.19;;;19.00;63.11
50368;BME280;36281;34.132;-118.018;2023-03-14T01:28:57;100340.91;;;18.94;63.42
50368;BME280;36281;34.132;-118.018;2023-03-14T01:31:27;100345.69;;;18.87;64.12
50368;BME280;36281;34.132;-118.018;2023-03-14T01:33:56;100348.06;;;18.83;64.45
50368;BME280;36281;34.132;-118.018;2023-03-14T01:36:25;100346.16;;;18.79;64.69
50368;BME280;36281;34.132;-118.018;2023-03-14T01:38:57;100354.72;;;18.76;65.18
50368;BME280;36281;34.132;-118.018;2023-03-14T01:41:27;100340.44;;;18.70;65.27
50368;BME280;36281;34.132;-118.018;2023-03-14T01:43:56;100344.34;;;18.63;65.68
50368;BME280;36281;34.132;-118.018;2023-03-14T01:46:29;100344.31;;;18.57;66.04
50368;BME280;36281;34.132;-118.018;2023-03-14T01:49:07;100345.31;;;18.51;66.57
50368;BME280;36281;34.132;-118.018;2023-03-14T01:51:42;100344.69;;;18.44;67.08
50368;BME280;36281;34.132;-118.018;2023-03-14T01:54:17;100337.34;;;18.34;67.68
50368;BME280;36281;34.132;-118.018;2023-03-14T01:56:51;100346.06;;;18.25;68.38
50368;BME280;36281;34.132;-118.018;2023-03-14T01:59:22;100356.13;;;18.13;69.05
50368;BME280;36281;34.132;-118.018;2023-03-14T02:01:51;100339.53;;;17.94;69.73
50368;BME280;36281;34.132;-118.018;2023-03-14T02:04:20;100356.13;;;17.91;70.37
50368;BME280;36281;34.132;-118.018;2023-03-14T02:06:55;100354.13;;;17.81;71.49
50368;BME280;36281;34.132;-118.018;2023-03-14T02:09:25;100355.56;;;17.72;72.10
50368;BME280;36281;34.132;-118.018;2023-03-14T02:11:56;100351.13;;;17.61;72.75
50368;BME280;36281;34.132;-118.018;2023-03-14T02:14:31;100358.03;;;17.56;73.10
50368;BME280;36281;34.132;-118.018;2023-03-14T02:17:01;100363.06;;;17.53;73.42
50368;BME280;36281;34.132;-118.018;2023-03-14T02:19:40;100371.81;;;17.48;73.77
50368;BME280;36281;34.132;-118.018;2023-03-14T02:22:15;100374.44;;;17.43;74.22
50368;BME280;36281;34.132;-118.018;2023-03-14T02:24:56;100345.72;;;17.22;74.63
50368;BME280;36281;34.132;-118.018;2023-03-14T02:27:28;100380.44;;;17.34;74.90
50368;BME280;36281;34.132;-118.018;2023-03-14T02:30:00;100381.41;;;17.27;75.27
50368;BME280;36281;34.132;-118.018;2023-03-14T02:32:30;100393.31;;;17.20;75.55
50368;BME280;36281;34.132;-118.018;2023-03-14T02:35:03;100382.53;;;17.15;75.87
50368;BME280;36281;34.132;-118.018;2023-03-14T02:37:38;100386.75;;;17.11;76.22
50368;BME280;36281;34.132;-118.018;2023-03-14T02:40:10;100386.09;;;17.03;76.36
50368;BME280;36281;34.132;-118.018;2023-03-14T02:42:41;100391.59;;;16.97;76.77
50368;BME280;36281;34.132;-118.018;2023-03-14T02:45:40;100374.47;;;16.81;77.02
50368;BME280;36281;34.132;-118.018;2023-03-14T02:48:14;100385.72;;;16.83;77.19
50368;BME280;36281;34.132;-118.018;2023-03-14T02:50:45;100379.47;;;16.77;77.56
50368;BME280;36281;34.132;-118.018;2023-03-14T02:53:18;100388.66;;;16.70;77.78
50368;BME280;36281;34.132;-118.018;2023-03-14T02:55:48;100397.88;;;16.62;78.13
50368;BME280;36281;34.132;-118.018;2023-03-14T02:58:19;100400.69;;;16.55;78.47
50368;BME280;36281;34.132;-118.018;2023-03-14T03:00:48;100412.34;;;16.49;78.91
50368;BME280;36281;34.132;-118.018;2023-03-14T03:03:18;100408.50;;;16.45;79.27
50368;BME280;36281;34.132;-118.018;2023-03-14T03:05:49;100401.94;;;16.36;79.68
50368;BME280;36281;34.132;-118.018;2023-03-14T03:08:19;100412.72;;;16.29;79.73
50368;BME280;36281;34.132;-118.018;2023-03-14T03:10:49;100414.59;;;16.29;80.11
50368;BME280;36281;34.132;-118.018;2023-03-14T03:13:20;100415.06;;;16.26;80.18
50368;BME280;36281;34.132;-118.018;2023-03-14T03:15:49;100416.00;;;16.20;80.47
50368;BME280;36281;34.132;-118.018;2023-03-14T03:18:18;100413.38;;;16.08;80.53
50368;BME280;36281;34.132;-118.018;2023-03-14T03:20:47;100421.72;;;16.12;81.20
50368;BME280;36281;34.132;-118.018;2023-03-14T03:23:16;100431.25;;;16.08;81.51
50368;BME280;36281;34.132;-118.018;2023-03-14T03:25:49;100438.91;;;16.04;81.60
50368;BME280;36281;34.132;-118.018;2023-03-14T03:28:20;100432.91;;;15.97;82.02
50368;BME280;36281;34.132;-118.018;2023-03-14T03:30:49;100432.53;;;15.93;82.17
50368;BME280;36281;34.132;-118.018;2023-03-14T03:33:18;100428.69;;;15.89;82.65
50368;BME280;36281;34.132;-118.018;2023-03-14T03:35:48;100436.72;;;15.89;82.88
50368;BME280;36281;34.132;-118.018;2023-03-14T03:38:17;100434.75;;;15.85;82.90
50368;BME280;36281;34.132;-118.018;2023-03-14T03:40:48;100431.72;;;15.81;83.27
50368;BME280;36281;34.132;-118.018;2023-03-14T03:43:19;100441.25;;;15.77;83.41
50368;BME280;36281;34.132;-118.018;2023-03-14T03:45:48;100441.69;;;15.74;83.82
50368;BME280;36281;34.132;-118.018;2023-03-14T03:48:17;100431.47;;;15.71;83.84
50368;BME280;36281;34.132;-118.018;2023-03-14T03:50:46;100426.38;;;15.69;83.96
50368;BME280;36281;34.132;-118.018;2023-03-14T03:53:15;100426.00;;;15.66;84.30
50368;BME280;36281;34.132;-118.018;2023-03-14T03:56:00;100426.69;;;15.61;84.67
50368;BME280;36281;34.132;-118.018;2023-03-14T03:58:31;100427.50;;;15.62;84.98
50368;BME280;36281;34.132;-118.018;2023-03-14T04:01:00;100429.13;;;15.63;84.96
50368;BME280;36281;34.132;-118.018;2023-03-14T04:03:29;100429.13;;;15.63;84.93
50368;BME280;36281;34.132;-118.018;2023-03-14T04:05:59;100427.50;;;15.62;85.17
50368;BME280;36281;34.132;-118.018;2023-03-14T04:08:29;100433.31;;;15.59;85.39
50368;BME280;36281;34.132;-118.018;2023-03-14T04:10:59;100443.97;;;15.59;85.50
50368;BME280;36281;34.132;-118.018;2023-03-14T04:13:30;100453.03;;;15.58;85.70
50368;BME280;36281;34.132;-118.018;2023-03-14T04:16:00;100463.34;;;15.54;85.61
50368;BME280;36281;34.132;-118.018;2023-03-14T04:18:29;100467.88;;;15.54;85.93
50368;BME280;36281;34.132;-118.018;2023-03-14T04:20:58;100456.16;;;15.43;85.86
50368;BME280;36281;34.132;-118.018;2023-03-14T04:23:27;100476.94;;;15.52;86.26
50368;BME280;36281;34.132;-118.018;2023-03-14T04:25:56;100475.31;;;15.51;86.36
50368;BME280;36281;34.132;-118.018;2023-03-14T04:28:25;100481.91;;;15.49;86.64
50368;BME280;36281;34.132;-118.018;2023-03-14T04:30:56;100488.31;;;15.48;86.89
50368;BME280;36281;34.132;-118.018;2023-03-14T04:33:25;100477.03;;;15.46;86.95
50368;BME280;36281;34.132;-118.018;2023-03-14T04:35:54;100487.50;;;15.47;87.11
50368;BME280;36281;34.132;-118.018;2023-03-14T04:38:24;100491.78;;;15.48;87.22
50368;BME280;36281;34.132;-118.018;2023-03-14T04:40:53;100494.22;;;15.50;87.11
50368;BME280;36281;34.132;-118.018;2023-03-14T04:43:22;100500.03;;;15.47;87.20
50368;BME280;36281;34.132;-118.018;2023-03-14T04:45:51;100496.41;;;15.41;87.35
50368;BME280;36281;34.132;-118.018;2023-03-14T04:48:22;100498.84;;;15.43;87.54
50368;BME280;36281;34.132;-118.018;2023-03-14T04:50:51;100498.25;;;15.41;87.60
50368;BME280;36281;34.132;-118.018;2023-03-14T04:53:20;100494.78;;;15.40;87.69
50368;BME280;36281;34.132;-118.018;2023-03-14T04:55:50;100501.16;;;15.39;87.76
50368;BME280;36281;34.132;-118.018;2023-03-14T04:58:20;100499.53;;;15.38;87.72
50368;BME280;36281;34.132;-118.018;2023-03-14T05:00:49;100487.09;;;15.32;87.55
50368;BME280;36281;34.132;-118.018;2023-03-14T05:03:18;100494.78;;;15.40;87.53
50368;BME280;36281;34.132;-118.018;2023-03-14T05:05:49;100494.78;;;15.40;87.52
50368;BME280;36281;34.132;-118.018;2023-03-14T05:08:18;100494.78;;;15.40;87.67
50368;BME280;36281;34.132;-118.018;2023-03-14T05:10:52;100508.72;;;15.42;87.69
50368;BME280;36281;34.132;-118.018;2023-03-14T05:13:22;100503.38;;;15.42;87.80
50368;BME280;36281;34.132;-118.018;2023-03-14T05:15:51;100498.03;;;15.42;87.66
50368;BME280;36281;34.132;-118.018;2023-03-14T05:18:20;100499.06;;;15.41;87.78
50368;BME280;36281;34.132;-118.018;2023-03-14T05:20:52;100506.25;;;15.41;87.59
50368;BME280;36281;34.132;-118.018;2023-03-14T05:23:21;100482.22;;;15.29;87.49
50368;BME280;36281;34.132;-118.018;2023-03-14T05:25:50;100494.19;;;15.38;87.49
50368;BME280;36281;34.132;-118.018;2023-03-14T05:28:20;100496.50;;;15.35;87.49
50368;BME280;36281;34.132;-118.018;2023-03-14T05:30:49;100500.47;;;15.32;87.46
50368;BME280;36281;34.132;-118.018;2023-03-14T05:33:18;100500.66;;;15.31;87.70
50368;BME280;36281;34.132;-118.018;2023-03-14T05:35:47;100501.94;;;15.28;87.77
50368;BME280;36281;34.132;-118.018;2023-03-14T05:38:17;100499.84;;;15.30;87.70
50368;BME280;36281;34.132;-118.018;2023-03-14T05:40:47;100495.78;;;15.28;87.77
50368;BME280;36281;34.132;-118.018;2023-03-14T05:43:16;100490.47;;;15.28;87.73
50368;BME280;36281;34.132;-118.018;2023-03-14T05:45:45;100490.47;;;15.28;87.88
50368;BME280;36281;34.132;-118.018;2023-03-14T05:48:14;100493.34;;;15.26;87.81
50368;BME280;36281;34.132;-118.018;2023-03-14T05:50:43;100496.25;;;15.24;87.81
50368;BME280;36281;34.132;-118.018;2023-03-14T05:53:12;100491.13;;;15.23;88.01
50368;BME280;36281;34.132;-118.018;2023-03-14T05:55:43;100477.44;;;15.19;88.02
50368;BME280;36281;34.132;-118.018;2023-03-14T05:58:12;100481.72;;;15.20;88.24
50368;BME280;36281;34.132;-118.018;2023-03-14T06:00:41;100482.75;;;15.19;88.34
50368;BME280;36281;34.132;-118.018;2023-03-14T06:03:10;100483.00;;;15.18;88.36
50368;BME280;36281;34.132;-118.018;2023-03-14T06:05:39;100471.72;;;15.16;88.51
50368;BME280;36281;34.132;-118.018;2023-03-14T06:08:09;100473.56;;;15.15;88.65
50368;BME280;36281;34.132;-118.018;2023-03-14T06:10:38;100469.97;;;15.10;88.80
50368;BME280;36281;34.132;-118.018;2023-03-14T06:13:08;100477.53;;;15.13;88.94
50368;BME280;36281;34.132;-118.018;2023-03-14T06:15:37;100481.59;;;15.15;89.00
50368;BME280;36281;34.132;-118.018;2023-03-14T06:18:06;100476.25;;;15.15;88.90
50368;BME280;36281;34.132;-118.018;2023-03-14T06:20:36;100464.63;;;15.10;88.94
50368;BME280;36281;34.132;-118.018;2023-03-14T06:23:08;100476.47;;;15.14;89.00
50368;BME280;36281;34.132;-118.018;2023-03-14T06:25:37;100477.06;;;15.16;89.06
50368;BME280;36281;34.132;-118.018;2023-03-14T06:28:08;100477.66;;;15.18;89.14
50368;BME280;36281;34.132;-118.018;2023-03-14T06:30:38;100464.31;;;15.18;88.99
50368;BME280;36281;34.132;-118.018;2023-03-14T06:33:07;100456.75;;;15.15;88.90
50368;BME280;36281;34.132;-118.018;2023-03-14T06:35:36;100455.28;;;15.19;89.01
50368;BME280;36281;34.132;-118.018;2023-03-14T06:38:05;100454.22;;;15.20;89.13
50368;BME280;36281;34.132;-118.018;2023-03-14T06:40:34;100447.03;;;15.20;89.13
50368;BME280;36281;34.132;-118.018;2023-03-14T06:43:03;100447.03;;;15.20;89.12
50368;BME280;36281;34.132;-118.018;2023-03-14T06:45:34;100445.41;;;15.19;89.06
50368;BME280;36281;34.132;-118.018;2023-03-14T06:48:03;100450.97;;;15.18;89.25
50368;BME280;36281;34.132;-118.018;2023-03-14T06:50:32;100451.78;;;15.18;89.50
50368;BME280;36281;34.132;-118.018;2023-03-14T06:53:01;100447.03;;;15.20;89.43
50368;BME280;36281;34.132;-118.018;2023-03-14T06:55:30;100447.03;;;15.20;89.35
50368;BME280;36281;34.132;-118.018;2023-03-14T06:57:59;100448.06;;;15.19;89.53
50368;BME280;36281;34.132;-118.018;2023-03-14T07:00:28;100447.25;;;15.19;89.59
50368;BME280;36281;34.132;-118.018;2023-03-14T07:02:58;100449.94;;;15.19;89.51
50368;BME280;36281;34.132;-118.018;2023-03-14T07:05:27;100436.03;;;15.17;89.73
50368;BME280;36281;34.132;-118.018;2023-03-14T07:07:57;100449.34;;;15.17;89.79
50368;BME280;36281;34.132;-118.018;2023-03-14T07:10:26;100444.03;;;15.17;89.97
50368;BME280;36281;34.132;-118.018;2023-03-14T07:12:55;100444.03;;;15.17;90.24
50368;BME280;36281;34.132;-118.018;2023-03-14T07:15:24;100444.03;;;15.17;90.31
50368;BME280;36281;34.132;-118.018;2023-03-14T07:17:53;100447.50;;;15.17;90.19
50368;BME280;36281;34.132;-118.018;2023-03-14T07:20:23;100442.16;;;15.17;90.28
50368;BME280;36281;34.132;-118.018;2023-03-14T07:22:53;100444.84;;;15.17;90.31
50368;BME280;36281;34.132;-118.018;2023-03-14T07:25:23;100435.41;;;15.15;90.35
50368;BME280;36281;34.132;-118.018;2023-03-14T07:27:51;100442.97;;;15.18;90.38
50368;BME280;36281;34.132;-118.018;2023-03-14T07:30:21;100436.81;;;15.17;90.35
50368;BME280;36281;34.132;-118.018;2023-03-14T07:32:50;100436.59;;;15.19;90.51
50368;BME280;36281;34.132;-118.018;2023-03-14T07:35:19;100444.34;;;15.20;90.46
50368;BME280;36281;34.132;-118.018;2023-03-14T07:37:50;100444.59;;;15.19;90.24
50368;BME280;36281;34.132;-118.018;2023-03-14T07:40:19;100445.41;;;15.19;90.35
50368;BME280;36281;34.132;-118.018;2023-03-14T07:42:48;100440.31;;;15.18;90.39
50368;BME280;36281;34.132;-118.018;2023-03-14T07:45:18;100446.22;;;15.20;90.22
50368;BME280;36281;34.132;-118.018;2023-03-14T07:47:47;100444.34;;;15.20;90.28
50368;BME280;36281;34.132;-118.018;2023-03-14T07:50:16;100438.69;;;15.17;90.25
50368;BME280;36281;34.132;-118.018;2023-03-14T07:52:45;100415.66;;;15.04;90.29
50368;BME280;36281;34.132;-118.018;2023-03-14T07:55:16;100440.44;;;15.23;90.11
50368;BME280;36281;34.132;-118.018;2023-03-14T07:57:45;100444.16;;;15.22;90.22
50368;BME280;36281;34.132;-118.018;2023-03-14T08:00:15;100448.44;;;15.23;90.16
50368;BME280;36281;34.132;-118.018;2023-03-14T08:02:44;100447.63;;;15.22;89.97
50368;BME280;36281;34.132;-118.018;2023-03-14T08:05:13;100443.31;;;15.21;89.81
50368;BME280;36281;34.132;-118.018;2023-03-14T08:07:42;100448.44;;;15.23;89.84
50368;BME280;36281;34.132;-118.018;2023-03-14T08:10:11;100440.44;;;15.23;89.87
50368;BME280;36281;34.132;-118.018;2023-03-14T08:12:45;100444.16;;;15.22;89.93
50368;BME280;36281;34.132;-118.018;2023-03-14T08:15:14;100447.41;;;15.24;90.00
50368;BME280;36281;34.132;-118.018;2023-03-14T08:17:43;100453.16;;;15.21;90.15
50368;BME280;36281;34.132;-118.018;2023-03-14T08:20:12;100459.94;;;15.23;89.98
50368;BME280;36281;34.132;-118.018;2023-03-14T08:22:41;100454.81;;;15.22;90.03
50368;BME280;36281;34.132;-118.018;2023-03-14T08:25:10;100456.88;;;15.20;89.88
50368;BME280;36281;34.132;-118.018;2023-03-14T08:27:39;100464.91;;;15.20;90.25
50368;BME280;36281;34.132;-118.018;2023-03-14T08:30:14;100455.28;;;15.19;90.30
50368;BME280;36281;34.132;-118.018;2023-03-14T08:32:43;100454.47;;;15.18;90.47
50368;BME280;36281;34.132;-118.018;2023-03-14T08:35:12;100457.69;;;15.20;90.43
50368;BME280;36281;34.132;-118.018;2023-03-14T08:37:42;100448.75;;;15.15;90.36
50368;BME280;36281;34.132;-118.018;2023-03-14T08:40:12;100452.03;;;15.17;90.28
50368;BME280;36281;34.132;-118.018;2023-03-14T08:42:41;100444.22;;;15.15;90.63
50368;BME280;36281;34.132;-118.018;2023-03-14T08:45:14;100447.13;;;15.14;90.60
50368;BME280;36281;34.132;-118.018;2023-03-14T08:47:44;100438.09;;;15.15;90.72
50368;BME280;36281;34.132;-118.018;2023-03-14T08:50:14;100434.16;;;15.17;90.64
50368;BME280;36281;34.132;-118.018;2023-03-14T08:52:43;100440.31;;;15.18;90.54
50368;BME280;36281;34.132;-118.018;2023-03-14T08:55:12;100437.63;;;15.18;90.54
50368;BME280;36281;34.132;-118.018;2023-03-14T08:57:41;100433.34;;;15.17;90.47
50368;BME280;36281;34.132;-118.018;2023-03-14T09:00:13;100441.13;;;15.18;90.56
50368;BME280;36281;34.132;-118.018;2023-03-14T09:02:43;100438.22;;;15.20;90.71
50368;BME280;36281;34.132;-118.018;2023-03-14T09:05:13;100424.75;;;15.15;90.37
50368;BME280;36281;34.132;-118.018;2023-03-14T09:07:42;100408.03;;;15.08;90.55
50368;BME280;36281;34.132;-118.018;2023-03-14T09:10:11;100418.84;;;15.13;90.87
50368;BME280;36281;34.132;-118.018;2023-03-14T09:12:40;100406.31;;;15.13;91.08
50368;BME280;36281;34.132;-118.018;2023-03-14T09:15:10;100406.06;;;15.15;91.04
50368;BME280;36281;34.132;-118.018;2023-03-14T09:17:42;100407.69;;;15.16;91.22
50368;BME280;36281;34.132;-118.018;2023-03-14T09:20:12;100407.13;;;15.14;91.37
50368;BME280;36281;34.132;-118.018;2023-03-14T09:22:42;100404.44;;;15.14;91.67
50368;BME280;36281;34.132;-118.018;2023-03-14T09:25:11;100381.22;;;15.03;91.70
50368;BME280;36281;34.132;-118.018;2023-03-14T09:27:41;100401.34;;;15.17;91.56
50368;BME280;36281;34.132;-118.018;2023-03-14T09:30:11;100400.03;;;15.19;91.41
50368;BME280;36281;34.132;-118.018;2023-03-14T09:32:41;100396.56;;;15.19;91.25
50368;BME280;36281;34.132;-118.018;2023-03-14T09:35:10;100380.19;;;15.15;91.18
50368;BME280;36281;34.132;-118.018;2023-03-14T09:37:40;100368.28;;;15.18;90.96
50368;BME280;36281;34.132;-118.018;2023-03-14T09:40:12;100372.56;;;15.19;90.72
50368;BME280;36281;34.132;-118.018;2023-03-14T09:42:42;100369.88;;;15.19;90.74
50368;BME280;36281;34.132;-118.018;2023-03-14T09:45:13;100372.56;;;15.19;90.80
50368;BME280;36281;34.132;-118.018;2023-03-14T09:47:46;100356.31;;;15.09;91.07
50368;BME280;36281;34.132;-118.018;2023-03-14T09:50:27;100363.63;;;15.13;91.11
50368;BME280;36281;34.132;-118.018;2023-03-14T09:53:03;100342.97;;;15.09;90.94
50368;BME280;36281;34.132;-118.018;2023-03-14T09:55:33;100347.13;;;15.05;91.18
50368;BME280;36281;34.132;-118.018;2023-03-14T09:58:10;100337.38;;;14.98;91.08
50368;BME280;36281;34.132;-118.018;2023-03-14T10:00:40;100333.31;;;14.96;91.09
50368;BME280;36281;34.132;-118.018;2023-03-14T10:03:26;100336.66;;;14.91;91.23
50368;BME280;36281;34.132;-118.018;2023-03-14T10:05:58;100337.56;;;14.85;91.22
50368;BME280;36281;34.132;-118.018;2023-03-14T10:08:27;100341.16;;;14.79;91.34
50368;BME280;36281;34.132;-118.018;2023-03-14T10:10:56;100332.44;;;14.72;91.51
50368;BME280;36281;34.132;-118.018;2023-03-14T10:13:26;100307.59;;;14.60;91.40
50368;BME280;36281;34.132;-118.018;2023-03-14T10:16:01;100315.59;;;14.60;91.42
50368;BME280;36281;34.132;-118.018;2023-03-14T10:18:33;100307.69;;;14.53;91.55
50368;BME280;36281;34.132;-118.018;2023-03-14T10:21:05;100278.03;;;14.31;92.01
50368;BME280;36281;34.132;-118.018;2023-03-14T10:23:35;100302.50;;;14.40;92.58
50368;BME280;36281;34.132;-118.018;2023-03-14T10:26:08;100287.53;;;14.27;92.97
50368;BME280;36281;34.132;-118.018;2023-03-14T10:28:43;100290.78;;;14.29;93.07
50368;BME280;36281;34.132;-118.018;2023-03-14T10:31:13;100295.28;;;14.29;93.16
50368;BME280;36281;34.132;-118.018;2023-03-14T10:33:58;100278.13;;;14.25;93.65
50368;BME280;36281;34.132;-118.018;2023-03-14T10:36:29;100274.50;;;14.19;93.69
50368;BME280;36281;34.132;-118.018;2023-03-14T10:39:18;100265.78;;;14.12;94.28
50368;BME280;36281;34.132;-118.018;2023-03-14T10:41:53;100253.63;;;14.16;94.85
50368;BME280;36281;34.132;-118.018;2023-03-14T10:44:24;100248.91;;;14.18;95.04
50368;BME280;36281;34.132;-118.018;2023-03-14T10:46:59;100220.16;;;14.08;95.14
50368;BME280;36281;34.132;-118.018;2023-03-14T10:49:32;100240.47;;;14.21;95.44
50368;BME280;36281;34.132;-118.018;2023-03-14T10:52:03;100231.41;;;14.22;95.84
50368;BME280;36281;34.132;-118.018;2023-03-14T10:54:41;100240.25;;;14.22;96.06
50368;BME280;36281;34.132;-118.018;2023-03-14T10:57:15;100240.25;;;14.22;95.75
50368;BME280;36281;34.132;-118.018;2023-03-14T10:59:44;100242.06;;;14.22;95.57
50368;BME280;36281;34.132;-118.018;2023-03-14T11:05:28;100212.31;;;14.25;94.31
50368;BME280;36281;34.132;-118.018;2023-03-14T11:08:01;100212.19;;;14.20;94.26
50368;BME280;36281;34.132;-118.018;2023-03-14T11:10:35;100220.94;;;14.27;93.79
50368;BME280;36281;34.132;-118.018;2023-03-14T11:13:20;100221.13;;;14.26;93.44
50368;BME280;36281;34.132;-118.018;2023-03-14T11:15:59;100200.84;;;14.13;92.63
50368;BME280;36281;34.132;-118.018;2023-03-14T11:19:03;100215.81;;;14.26;92.94
50368;BME280;36281;34.132;-118.018;2023-03-14T11:21:42;100213.38;;;14.24;92.67
50368;BME280;36281;34.132;-118.018;2023-03-14T11:24:27;100208.03;;;14.24;93.07
50368;BME280;36281;34.132;-118.018;2023-03-14T11:27:00;100205.97;;;14.26;93.27
50368;BME280;36281;34.132;-118.018;2023-03-14T11:29:38;100205.97;;;14.26;93.73
50368;BME280;36281;34.132;-118.018;2023-03-14T11:32:13;100210.28;;;14.27;94.06
50368;BME280;36281;34.132;-118.018;2023-03-14T11:34:48;100207.59;;;14.27;94.22
50368;BME280;36281;34.132;-118.018;2023-03-14T11:37:25;100217.91;;;14.23;94.33
50368;BME280;36281;34.132;-118.018;2023-03-14T11:39:59;100206.88;;;14.20;94.49
50368;BME280;36281;34.132;-118.018;2023-03-14T11:42:33;100219.38;;;14.19;94.86
50368;BME280;36281;34.132;-118.018;2023-03-14T11:45:03;100222.84;;;14.20;94.48
50368;BME280;36281;34.132;-118.018;2023-03-14T11:47:35;100221.91;;;14.14;94.62
50368;BME280;36281;34.132;-118.018;2023-03-14T11:50:14;100226.19;;;14.15;94.83
50368;BME280;36281;34.132;-118.018;2023-03-14T11:52:50;100215.16;;;14.12;94.69
50368;BME280;36281;34.132;-118.018;2023-03-14T11:55:21;100214.22;;;14.06;95.02
50368;BME280;36281;34.132;-118.018;2023-03-14T11:57:59;100220.03;;;14.03;95.26
50368;BME280;36281;34.132;-118.018;2023-03-14T12:00:30;100208.75;;;14.01;95.38
50368;BME280;36281;34.132;-118.018;2023-03-14T12:03:04;100207.72;;;14.02;95.58
50368;BME280;36281;34.132;-118.018;2023-03-14T12:05:47;100207.38;;;13.99;95.74
50368;BME280;36281;34.132;-118.018;2023-03-14T12:08:49;100209.81;;;14.00;95.91
50368;BME280;36281;34.132;-118.018;2023-03-14T12:11:24;100201.44;;;13.96;96.23
50368;BME280;36281;34.132;-118.018;2023-03-14T12:13:54;100177.56;;;13.78;96.64
50368;BME280;36281;34.132;-118.018;2023-03-14T12:16:37;100208.44;;;13.98;96.79
50368;BME280;36281;34.132;-118.018;2023-03-14T12:19:24;100204.59;;;13.93;97.12
50368;BME280;36281;34.132;-118.018;2023-03-14T12:21:58;100214.56;;;13.98;97.12
50368;BME280;36281;34.132;-118.018;2023-03-14T12:24:33;100214.56;;;13.98;97.19
50368;BME280;36281;34.132;-118.018;2023-03-14T12:27:03;100206.78;;;13.96;97.59
50368;BME280;36281;34.132;-118.018;2023-03-14T12:29:33;100197.97;;;13.96;97.99
50368;BME280;36281;34.132;-118.018;2023-03-14T12:32:23;100200.44;;;13.98;98.17
50368;BME280;36281;34.132;-118.018;2023-03-14T12:34:52;100206.78;;;13.96;98.28
50368;BME280;36281;34.132;-118.018;2023-03-14T12:37:30;100209.69;;;13.95;98.48
50368;BME280;36281;34.132;-118.018;2023-03-14T12:40:18;100217.44;;;13.96;98.53
50368;BME280;36281;34.132;-118.018;2023-03-14T12:42:54;100217.44;;;13.96;98.72
50368;BME280;36281;34.132;-118.018;2023-03-14T12:45:28;100217.66;;;13.95;98.46